Trindade, Brazil
Current Conditions -  °F | °C
As of 2:00 AM on Thursday 18 Dec 2014 (Local Time) from SBGO Reporting Station
Broken Clouds Broken Clouds  
Wind Chill: 72°   Ceiling: 10000
Heat Index: 72°   Visibility: 6mi
Dew Point: 68°   Wind: 5mph
Humidity: 88%   Direction: 330°NNW
Pressure: 29.94"   Gusts: NA
Location:  16.65°S, 49.5°W
Report Text: SBGO 180400Z 33004KT 9999 FEW030 BKN100 22/20 Q1014
Loading
Personal Weather Stations






























Interactive Weather Map New forecast layout! Learn more

10-Day Weather Forecast

Advertisements
Track Severe Weather on mobile